Time;durP1;ratioP1;P1;durP2;ratioP2;P2;SDS_P1;SDS_P2;PMS_P1;PMS_P2;Temp;Humidity;BMP_temperature;BMP_pressure;BME280_temperature;BME280_humidity;BME280_pressure;Samples;Min_cycle;Max_cycle;Signal;HPM_P1;HPM_P2
2022/11/15 00:01:19;;;;;;;21.63;12.27;;;;;;;9.14;77.87;100853.00;5026340;28;20098;-67
2022/11/15 00:03:46;;;;;;;17.77;11.35;;;;;;;9.44;75.77;100851.66;5047538;28;20040;-67
2022/11/15 00:06:13;;;;;;;22.17;12.38;;;;;;;9.29;75.35;100845.34;5047350;28;20450;-67
2022/11/15 00:08:39;;;;;;;22.02;11.77;;;;;;;8.90;76.16;100851.47;5029647;28;20056;-67
2022/11/15 00:11:07;;;;;;;21.95;12.65;;;;;;;8.48;77.43;100852.34;5047019;28;20041;-67
2022/11/15 00:13:34;;;;;;;21.40;12.27;;;;;;;8.34;77.88;100849.47;5046728;28;20040;-67
2022/11/15 00:16:02;;;;;;;19.73;12.30;;;;;;;8.23;78.08;100846.41;5037572;28;20053;-67
2022/11/15 00:18:29;;;;;;;24.15;12.15;;;;;;;7.92;79.60;100845.91;5028948;28;20045;-67
2022/11/15 00:20:57;;;;;;;22.80;13.52;;;;;;;8.24;78.25;100845.50;5027329;28;20061;-67
2022/11/15 00:23:23;;;;;;;26.85;14.02;;;;;;;8.39;77.49;100846.69;5022272;28;20051;-67
2022/11/15 00:25:57;;;;;;;23.85;12.80;;;;;;;8.32;75.94;100840.81;5047719;28;20106;-67
2022/11/15 00:28:25;;;;;;;26.58;12.98;;;;;;;8.11;76.47;100839.91;5062100;28;20101;-67
2022/11/15 00:30:51;;;;;;;24.10;13.23;;;;;;;8.18;76.44;100845.72;5036887;28;20044;-67
2022/11/15 00:33:18;;;;;;;22.50;12.57;;;;;;;8.17;76.38;100850.09;5046422;28;20041;-67
2022/11/15 00:35:45;;;;;;;18.75;11.23;;;;;;;8.11;75.17;100841.66;5047343;28;20044;-67
2022/11/15 00:38:11;;;;;;;17.13;10.95;;;;;;;7.91;74.14;100839.00;5034623;28;20048;-67
2022/11/15 00:40:38;;;;;;;23.63;12.40;;;;;;;7.70;75.42;100843.28;5046310;28;20052;-67
2022/11/15 00:43:04;;;;;;;25.83;12.75;;;;;;;7.95;74.39;100843.16;5047598;28;20041;-67
2022/11/15 00:45:32;;;;;;;19.15;11.70;;;;;;;7.70;74.98;100836.31;5052830;28;20046;-67
2022/11/15 00:47:58;;;;;;;18.63;11.38;;;;;;;7.49;74.69;100837.13;5053861;28;20048;-67
2022/11/15 00:50:25;;;;;;;22.05;12.60;;;;;;;7.53;75.42;100849.16;5047321;28;20056;-69
2022/11/15 00:52:51;;;;;;;19.55;11.15;;;;;;;7.19;74.79;100831.28;5035924;28;20040;-67
2022/11/15 00:55:19;;;;;;;18.73;11.05;;;;;;;7.36;74.66;100838.47;5046320;28;20397;-67
2022/11/15 00:57:47;;;;;;;24.60;12.63;;;;;;;7.23;75.45;100832.00;5047066;28;20071;-66
2022/11/15 01:00:14;;;;;;;20.38;12.07;;;;;;;7.15;75.57;100829.69;5036468;28;20688;-66
2022/11/15 01:02:42;;;;;;;23.58;12.27;;;;;;;7.02;76.17;100838.81;5047196;28;20412;-66
2022/11/15 01:05:09;;;;;;;22.65;12.95;;;;;;;7.11;75.85;100827.22;5047702;28;20051;-66
2022/11/15 01:07:35;;;;;;;21.95;11.85;;;;;;;7.11;76.16;100829.84;5031851;28;20048;-66
2022/11/15 01:10:02;;;;;;;24.70;14.13;;;;;;;6.92;77.66;100829.63;5039662;28;20524;-66
2022/11/15 01:12:28;;;;;;;23.20;12.98;;;;;;;6.74;77.18;100832.88;5047214;28;20048;-66
2022/11/15 01:14:55;;;;;;;21.33;12.32;;;;;;;6.21;79.06;100835.53;5037288;28;20056;-66
2022/11/15 01:17:21;;;;;;;26.80;13.07;;;;;;;5.84;82.00;100824.53;5046211;28;20098;-66
2022/11/15 01:19:49;;;;;;;27.00;13.27;;;;;;;5.79;82.69;100826.44;5046631;28;20052;-66
2022/11/15 01:22:15;;;;;;;23.27;12.05;;;;;;;6.07;81.65;100822.09;5054940;28;20048;-66
2022/11/15 01:24:42;;;;;;;23.98;13.80;;;;;;;5.83;82.21;100815.91;5066785;28;20055;-66
2022/11/15 01:27:08;;;;;;;27.00;12.63;;;;;;;6.01;81.77;100818.84;5069280;28;20051;-66
2022/11/15 01:29:35;;;;;;;24.30;13.40;;;;;;;5.87;82.14;100827.91;5055264;28;20053;-66
2022/11/15 01:32:02;;;;;;;33.17;15.57;;;;;;;5.78;86.12;100819.53;5050335;28;20063;-66
2022/11/15 01:34:28;;;;;;;25.45;12.35;;;;;;;5.76;82.77;100824.78;5048777;28;20045;-66
2022/11/15 01:36:56;;;;;;;27.55;13.02;;;;;;;5.96;82.98;100826.78;5045717;28;20063;-67
2022/11/15 01:39:22;;;;;;;25.55;13.10;;;;;;;6.15;83.93;100827.06;5046807;28;20041;-67
2022/11/15 01:41:49;;;;;;;27.17;12.88;;;;;;;6.22;84.55;100816.41;5057739;28;20051;-67
2022/11/15 01:44:42;;;;;;;25.20;12.25;;;;;;;6.44;84.63;100818.28;5040706;28;20044;-67
2022/11/15 01:47:13;;;;;;;23.83;12.35;;;;;;;6.31;82.88;100817.88;5050079;28;20052;-67
2022/11/15 01:49:51;;;;;;;25.80;13.70;;;;;;;6.49;83.87;100819.84;5038894;28;20055;-67
2022/11/15 01:52:23;;;;;;;27.35;12.45;;;;;;;6.15;85.44;100811.44;5055491;28;20484;-67
2022/11/15 01:54:54;;;;;;;25.27;12.23;;;;;;;6.58;84.12;100813.47;5023938;28;20045;-67
2022/11/15 01:57:20;;;;;;;27.75;13.65;;;;;;;6.50;87.26;100810.28;5029407;28;20049;-67
2022/11/15 01:59:48;;;;;;;28.73;14.18;;;;;;;6.29;86.72;100797.06;5041853;28;20074;-67
2022/11/15 02:02:14;;;;;;;23.13;12.93;;;;;;;6.23;87.16;100802.50;5039898;28;20048;-66
2022/11/15 02:04:43;;;;;;;27.15;12.98;;;;;;;6.71;88.27;100779.13;5047502;28;20127;-66
2022/11/15 02:07:12;;;;;;;24.90;12.82;;;;;;;6.81;84.68;100772.69;5049311;28;20068;-67
2022/11/15 02:09:40;;;;;;;27.55;13.13;;;;;;;6.66;85.78;100788.00;5033549;28;20037;-67
2022/11/15 02:12:09;;;;;;;25.80;12.90;;;;;;;6.72;85.56;100783.44;5034336;28;20049;-67
2022/11/15 02:14:38;;;;;;;23.02;12.00;;;;;;;6.76;86.22;100782.41;5020913;28;20051;-67
2022/11/15 02:17:16;;;;;;;23.33;11.63;;;;;;;6.90;83.86;100781.09;5030167;28;20111;-67
2022/11/15 02:20:10;;;;;;;21.50;12.07;;;;;;;6.79;85.15;100776.25;5029795;28;20040;-67
2022/11/15 02:22:52;;;;;;;24.83;12.35;;;;;;;7.14;85.87;100774.97;5029201;28;20544;-67
2022/11/15 02:25:39;;;;;;;23.45;12.02;;;;;;;7.07;87.65;100770.88;5021191;28;20045;-67
2022/11/15 02:28:24;;;;;;;23.88;11.82;;;;;;;7.44;84.72;100779.03;5031272;28;20487;-67
2022/11/15 02:30:59;;;;;;;30.58;12.45;;;;;;;7.86;83.64;100780.91;5032485;28;20040;-67
2022/11/15 02:33:36;;;;;;;26.63;12.38;;;;;;;8.07;81.97;100780.88;5049131;28;20225;-67
2022/11/15 02:36:07;;;;;;;23.98;10.63;;;;;;;7.87;78.98;100772.16;5048099;28;20048;-67
2022/11/15 02:38:41;;;;;;;18.63;10.48;;;;;;;7.33;79.41;100770.75;5045497;28;20055;-67
2022/11/15 02:41:12;;;;;;;22.67;11.75;;;;;;;7.01;82.46;100761.53;5035517;28;20053;-67
2022/11/15 02:43:58;;;;;;;26.00;11.65;;;;;;;6.71;83.22;100765.25;5028458;28;20053;-67
2022/11/15 02:49:16;;;;;;;24.40;12.57;;;;;;;6.29;88.14;100763.22;5018300;28;20056;-67
2022/11/15 02:51:45;;;;;;;24.13;12.35;;;;;;;6.62;87.25;100755.13;5029811;28;20049;-66
2022/11/15 02:54:13;;;;;;;22.80;11.75;;;;;;;6.85;85.96;100758.63;5046610;28;20071;-67
2022/11/15 02:56:40;;;;;;;22.63;12.10;;;;;;;6.81;84.99;100757.03;5024235;28;20049;-67
2022/11/15 02:59:21;;;;;;;24.92;12.32;;;;;;;6.96;85.23;100750.44;5047815;28;20503;-67
2022/11/15 03:02:07;;;;;;;24.60;12.35;;;;;;;7.00;85.92;100751.16;5048143;28;20044;-67
2022/11/15 03:04:43;;;;;;;28.38;11.98;;;;;;;6.87;87.56;100750.78;5047857;28;20055;-67
2022/11/15 03:07:17;;;;;;;27.52;13.45;;;;;;;6.87;88.09;100745.56;5038445;28;20431;-67
2022/11/15 03:09:52;;;;;;;23.13;10.85;;;;;;;6.74;91.60;100746.91;5042032;28;20068;-67
2022/11/15 03:12:26;;;;;;;28.63;13.90;;;;;;;7.34;89.82;100746.41;5048369;28;20052;-67
2022/11/15 03:15:00;;;;;;;22.40;12.30;;;;;;;7.47;86.34;100742.38;5048229;28;20140;-67
2022/11/15 03:17:30;;;;;;;22.52;12.43;;;;;;;7.51;86.41;100738.75;5048991;28;20055;-67
2022/11/15 03:19:59;;;;;;;21.45;12.32;;;;;;;7.77;86.15;100746.41;5037662;28;20052;-67
2022/11/15 03:22:30;;;;;;;25.10;12.48;;;;;;;7.69;85.99;100743.25;5047750;28;20060;-67
2022/11/15 03:24:59;;;;;;;24.20;12.50;;;;;;;7.73;85.59;100743.97;5033647;28;20054;-67
2022/11/15 03:27:31;;;;;;;24.42;13.23;;;;;;;7.35;88.54;100742.88;5047050;28;20055;-67
2022/11/15 03:30:04;;;;;;;26.95;13.60;;;;;;;7.54;87.56;100743.84;5046902;28;21155;-67
2022/11/15 03:32:36;;;;;;;27.08;12.13;;;;;;;7.68;85.97;100733.75;5038877;28;20488;-67
2022/11/15 03:35:07;;;;;;;23.33;12.98;;;;;;;7.32;86.80;100738.63;5047399;28;20094;-67
2022/11/15 03:37:38;;;;;;;19.08;11.10;;;;;;;7.15;87.69;100732.34;5035688;28;20045;-67
2022/11/15 03:40:06;;;;;;;21.48;11.70;;;;;;;7.09;90.36;100729.97;5047360;28;20040;-67
2022/11/15 03:42:43;;;;;;;21.48;11.93;;;;;;;7.16;89.96;100736.66;5030447;28;20049;-67
2022/11/15 03:45:16;;;;;;;24.73;12.25;;;;;;;7.18;90.70;100740.03;5038691;28;20512;-67
2022/11/15 03:47:49;;;;;;;22.25;10.73;;;;;;;7.46;89.31;100747.69;5047007;28;20051;-67
2022/11/15 03:50:19;;;;;;;24.33;11.57;;;;;;;7.54;88.76;100736.03;5037203;28;20427;-67
2022/11/15 03:52:48;;;;;;;20.42;11.23;;;;;;;7.59;88.81;100736.69;5046644;28;20540;-68
2022/11/15 03:55:17;;;;;;;27.02;13.45;;;;;;;7.53;88.52;100739.56;5048142;28;20048;-67
2022/11/15 03:57:44;;;;;;;24.83;11.98;;;;;;;7.55;89.19;100736.88;5037531;28;20051;-67
2022/11/15 04:00:11;;;;;;;19.63;10.60;;;;;;;7.70;87.90;100729.28;5046227;28;20489;-67
2022/11/15 04:02:38;;;;;;;22.65;12.35;;;;;;;7.40;89.55;100729.63;5047771;28;20075;-67
2022/11/15 04:05:06;;;;;;;21.10;12.55;;;;;;;7.21;90.25;100732.09;5037918;28;20044;-67
2022/11/15 04:07:33;;;;;;;28.67;11.65;;;;;;;7.08;91.41;100725.66;5045931;28;20040;-67
2022/11/15 04:10:05;;;;;;;21.35;11.35;;;;;;;7.08;91.92;100734.34;5041348;28;20048;-67
2022/11/15 04:12:34;;;;;;;21.10;11.90;;;;;;;7.18;90.91;100742.66;5046479;28;20049;-67
2022/11/15 04:15:08;;;;;;;21.60;12.98;;;;;;;7.09;91.64;100735.19;5037404;28;20053;-67
2022/11/15 04:17:39;;;;;;;20.25;10.35;;;;;;;7.10;91.14;100716.00;5018412;28;20051;-67
2022/11/15 04:25:42;;;;;;;21.88;11.75;;;;;;;7.41;89.66;100719.16;5035582;28;20127;-67
2022/11/15 04:28:08;;;;;;;21.42;11.02;;;;;;;7.11;91.86;100728.16;5038111;28;20053;-67
2022/11/15 04:30:35;;;;;;;23.20;11.85;;;;;;;7.15;90.76;100716.69;5046144;28;20041;-67
2022/11/15 04:33:01;;;;;;;25.48;10.70;;;;;;;7.35;89.59;100711.59;5044801;28;20040;-67
2022/11/15 04:35:29;;;;;;;21.08;11.10;;;;;;;6.66;93.55;100713.28;5036235;28;20056;-67
2022/11/15 04:37:55;;;;;;;21.33;11.55;;;;;;;6.95;92.23;100716.63;5043251;28;20049;-67
2022/11/15 04:40:21;;;;;;;19.23;11.13;;;;;;;6.85;93.50;100716.94;5043157;28;20048;-67
2022/11/15 04:42:48;;;;;;;21.55;11.57;;;;;;;6.69;94.66;100713.19;5017591;28;20053;-67
2022/11/15 04:45:14;;;;;;;21.95;12.05;;;;;;;6.38;96.03;100704.78;5027384;28;20056;-66
2022/11/15 04:47:41;;;;;;;22.25;10.32;;;;;;;6.71;95.07;100706.16;5027224;28;20060;-66
2022/11/15 04:50:08;;;;;;;22.80;11.00;;;;;;;7.03;92.82;100707.56;5017985;28;20049;-66
2022/11/15 04:52:35;;;;;;;22.60;11.18;;;;;;;6.91;93.32;100713.25;5027169;28;20045;-67
2022/11/15 04:55:02;;;;;;;17.75;10.18;;;;;;;7.11;92.88;100707.28;5027126;28;20053;-67
2022/11/15 04:57:28;;;;;;;23.25;10.45;;;;;;;7.07;92.68;100708.31;5034907;28;20051;-67
2022/11/15 04:59:55;;;;;;;22.83;11.52;;;;;;;7.04;92.56;100705.81;5047571;28;20063;-67
2022/11/15 05:02:21;;;;;;;24.45;10.48;;;;;;;7.40;90.35;100708.78;5049676;28;20060;-67
2022/11/15 05:04:47;;;;;;;19.05;10.60;;;;;;;7.58;89.34;100703.69;5022596;28;20408;-67
2022/11/15 05:07:13;;;;;;;18.33;9.48;;;;;;;7.66;89.15;100709.44;5050421;28;20044;-67
2022/11/15 05:09:41;;;;;;;20.67;10.70;;;;;;;7.38;90.18;100710.59;5044992;28;20450;-67
2022/11/15 05:12:07;;;;;;;20.65;10.48;;;;;;;7.59;88.79;100710.59;5040743;28;20463;-67
2022/11/15 05:14:34;;;;;;;19.77;10.80;;;;;;;7.72;87.74;100705.75;5038594;28;20412;-67
2022/11/15 05:17:01;;;;;;;22.45;11.30;;;;;;;7.55;89.23;100714.25;5030011;28;20049;-67
2022/11/15 05:19:27;;;;;;;22.08;10.93;;;;;;;7.19;91.46;100707.84;5020511;28;20052;-67
2022/11/15 05:21:54;;;;;;;23.45;11.00;;;;;;;7.05;91.65;100699.72;5042378;28;20123;-67
2022/11/15 05:24:20;;;;;;;23.75;11.68;;;;;;;7.06;92.32;100707.47;5039495;28;20068;-67
2022/11/15 05:26:48;;;;;;;22.60;11.50;;;;;;;7.07;91.99;100714.38;5029316;28;20400;-67
2022/11/15 05:29:14;;;;;;;22.70;12.05;;;;;;;7.61;89.59;100705.34;5050189;28;20049;-67
2022/11/15 05:31:42;;;;;;;20.98;10.57;;;;;;;7.47;89.89;100710.22;5049944;28;20051;-67
2022/11/15 05:34:09;;;;;;;17.50;10.10;;;;;;;7.22;90.68;100699.91;5041526;28;20533;-67
2022/11/15 05:36:38;;;;;;;19.55;10.00;;;;;;;7.76;88.54;100697.72;5050559;28;20583;-67
2022/11/15 05:39:06;;;;;;;20.55;9.70;;;;;;;7.48;88.73;100697.13;5043862;28;20401;-68
2022/11/15 05:41:35;;;;;;;25.17;11.40;;;;;;;7.15;90.88;100693.22;5032492;28;20041;-67
2022/11/15 05:44:07;;;;;;;19.73;10.30;;;;;;;7.09;91.92;100699.53;5031026;28;20045;-67
2022/11/15 05:46:34;;;;;;;20.98;10.45;;;;;;;7.10;92.00;100695.16;5030996;28;20041;-67
2022/11/15 05:49:01;;;;;;;22.40;11.68;;;;;;;6.83;92.79;100694.47;5020047;28;20045;-67
2022/11/15 05:51:29;;;;;;;21.45;11.13;;;;;;;7.05;92.31;100691.91;5029436;28;20060;-67
2022/11/15 05:53:58;;;;;;;21.00;11.52;;;;;;;7.29;91.69;100706.59;5030580;28;20056;-67
2022/11/15 05:56:25;;;;;;;19.98;10.50;;;;;;;7.44;90.33;100710.34;5022938;28;20044;-67
2022/11/15 05:58:54;;;;;;;21.67;11.65;;;;;;;7.35;90.88;100706.38;5048684;28;20070;-66
2022/11/15 06:01:22;;;;;;;23.92;11.48;;;;;;;7.57;89.74;100706.38;5049577;28;20049;-66
2022/11/15 06:03:48;;;;;;;19.17;10.38;;;;;;;7.69;88.19;100700.63;5040395;28;20500;-66
2022/11/15 06:06:15;;;;;;;20.33;10.55;;;;;;;7.62;88.11;100697.44;5049086;28;20052;-66
2022/11/15 06:08:41;;;;;;;21.23;11.15;;;;;;;7.34;90.13;100702.06;5049313;28;20040;-66
2022/11/15 06:11:08;;;;;;;23.10;10.27;;;;;;;7.55;88.69;100702.97;5037642;28;20523;-66
2022/11/15 06:13:35;;;;;;;22.92;10.75;;;;;;;7.61;89.33;100694.91;5046999;28;20051;-68
2022/11/15 06:16:01;;;;;;;23.65;10.40;;;;;;;7.66;89.01;100698.16;5034918;28;20048;-67
2022/11/15 06:18:33;;;;;;;18.27;10.00;;;;;;;7.73;89.15;100702.22;5019873;28;20500;-67
2022/11/15 06:21:00;;;;;;;20.08;10.75;;;;;;;8.22;86.68;100703.66;5029099;28;20455;-67
2022/11/15 06:23:27;;;;;;;19.08;9.73;;;;;;;8.25;86.50;100706.13;5030542;28;20041;-66
2022/11/15 06:25:53;;;;;;;17.88;9.70;;;;;;;8.57;84.65;100716.06;5027101;28;20470;-66
2022/11/15 06:28:20;;;;;;;17.52;9.63;;;;;;;8.51;84.11;100720.72;5041622;28;20405;-66
2022/11/15 06:30:46;;;;;;;18.20;9.65;;;;;;;8.70;83.29;100719.00;5041020;28;20040;-66
2022/11/15 06:33:13;;;;;;;22.30;10.68;;;;;;;8.86;82.01;100719.16;5040225;28;20044;-66
2022/11/15 06:35:40;;;;;;;16.10;9.35;;;;;;;9.00;81.06;100727.25;5047230;28;20041;-67
2022/11/15 06:38:09;;;;;;;24.70;11.20;;;;;;;9.03;81.37;100734.94;5048754;28;20040;-68
2022/11/15 06:40:37;;;;;;;18.80;10.32;;;;;;;9.13;80.50;100744.06;5055240;28;20060;-67
2022/11/15 06:43:04;;;;;;;21.98;11.25;;;;;;;8.96;80.20;100743.97;5047991;28;20048;-67
2022/11/15 06:45:31;;;;;;;19.58;10.55;;;;;;;8.99;80.11;100742.06;5047406;28;20041;-67
2022/11/15 06:47:58;;;;;;;17.75;9.82;;;;;;;8.77;80.98;100742.19;5049432;28;20540;-67
2022/11/15 06:50:25;;;;;;;17.88;10.15;;;;;;;8.22;83.92;100753.28;5048131;28;20044;-66
2022/11/15 06:52:54;;;;;;;20.00;10.68;;;;;;;8.25;83.43;100759.22;5047309;28;20040;-66
2022/11/15 06:55:20;;;;;;;19.42;10.93;;;;;;;8.19;83.91;100753.41;5049528;28;20071;-67
2022/11/15 06:57:48;;;;;;;20.10;11.55;;;;;;;7.87;85.58;100762.53;5047839;28;20044;-67
2022/11/15 07:00:16;;;;;;;20.67;10.50;;;;;;;7.91;85.90;100758.06;5039430;28;20044;-67
2022/11/15 07:02:42;;;;;;;23.77;11.57;;;;;;;7.60;87.75;100758.44;5048949;28;20041;-67
2022/11/15 07:05:09;;;;;;;18.63;9.98;;;;;;;7.74;87.73;100766.56;5047739;28;20048;-66
2022/11/15 07:07:35;;;;;;;23.05;10.98;;;;;;;7.45;88.51;100762.47;5036402;28;20048;-66
2022/11/15 07:10:04;;;;;;;16.75;9.88;;;;;;;7.78;87.61;100769.00;5042359;28;20048;-67
2022/11/15 07:12:31;;;;;;;18.58;9.88;;;;;;;8.10;85.33;100779.88;5047769;28;20051;-67
2022/11/15 07:14:57;;;;;;;23.85;10.63;;;;;;;8.37;84.18;100770.97;5038093;28;20059;-67
2022/11/15 07:17:24;;;;;;;17.42;9.70;;;;;;;8.69;82.46;100764.34;5048299;28;20051;-67
2022/11/15 07:19:50;;;;;;;16.95;9.98;;;;;;;8.76;81.98;100765.78;5047150;28;20559;-68
2022/11/15 07:22:17;;;;;;;20.52;10.20;;;;;;;8.89;81.30;100771.31;5042733;28;20063;-68
2022/11/15 07:24:43;;;;;;;19.27;9.15;;;;;;;8.89;81.20;100776.56;5048071;28;20053;-66
2022/11/15 07:27:11;;;;;;;17.98;10.30;;;;;;;8.95;80.54;100778.88;5047643;28;20056;-66
2022/11/15 07:29:37;;;;;;;18.92;10.82;;;;;;;9.15;80.98;100778.84;5045253;28;20048;-66
2022/11/15 07:32:04;;;;;;;17.60;10.52;;;;;;;9.04;81.30;100779.34;5047554;28;20491;-66
2022/11/15 07:34:31;;;;;;;18.52;9.93;;;;;;;9.64;79.19;100783.53;5039129;28;20415;-66
2022/11/15 07:36:57;;;;;;;16.67;9.88;;;;;;;9.86;78.24;100782.50;5047894;28;20045;-66
2022/11/15 07:39:23;;;;;;;15.05;8.82;;;;;;;9.13;80.63;100784.16;5037097;28;20040;-67
2022/11/15 07:42:52;;;;;;;17.17;9.75;;;;;;;9.26;80.54;100776.59;5045125;28;20052;-66
2022/11/15 07:44:38;;;;;;;20.35;9.80;;;;;;;9.21;79.95;100774.19;5037599;28;20694;-65
2022/11/15 07:47:04;;;;;;;15.73;9.75;;;;;;;8.86;82.45;100779.31;5047015;28;20497;-66
2022/11/15 07:49:31;;;;;;;18.27;10.13;;;;;;;9.17;81.45;100782.25;5047994;28;20443;-67
2022/11/15 07:51:57;;;;;;;17.70;9.63;;;;;;;8.94;82.70;100769.38;5036847;28;20493;-67
2022/11/15 07:54:24;;;;;;;18.27;10.27;;;;;;;9.60;80.02;100768.03;5047223;28;20044;-67
2022/11/15 07:56:50;;;;;;;16.23;9.40;;;;;;;9.47;80.81;100778.22;5048499;28;20052;-67
2022/11/15 07:59:16;;;;;;;19.88;9.95;;;;;;;9.55;80.21;100770.88;5038384;28;20059;-66
2022/11/15 08:01:44;;;;;;;19.23;9.25;;;;;;;9.41;81.79;100775.91;5047070;28;20044;-65
2022/11/15 08:04:11;;;;;;;18.08;8.63;;;;;;;9.96;79.19;100775.91;5048095;28;20044;-65
2022/11/15 08:06:38;;;;;;;15.40;8.85;;;;;;;10.21;78.27;100761.56;5037429;28;20412;-66
2022/11/15 08:09:04;;;;;;;17.67;9.82;;;;;;;10.35;76.75;100762.66;5043837;28;20044;-65
2022/11/15 08:11:31;;;;;;;17.05;9.27;;;;;;;10.77;76.24;100752.56;5047704;28;20123;-65
2022/11/15 08:13:57;;;;;;;14.07;8.48;;;;;;;11.15;73.54;100763.69;5036658;28;20047;-65
2022/11/15 08:16:24;;;;;;;14.88;9.25;;;;;;;11.14;73.91;100754.09;5046827;28;20048;-65
2022/11/15 08:18:51;;;;;;;18.50;8.50;;;;;;;11.16;73.48;100762.72;5047365;28;20070;-65
2022/11/15 08:21:20;;;;;;;15.98;9.02;;;;;;;10.97;74.89;100759.41;5036541;28;20055;-65
2022/11/15 08:23:47;;;;;;;16.98;9.25;;;;;;;10.92;75.49;100756.16;5047022;28;20413;-65
2022/11/15 08:26:14;;;;;;;18.20;8.68;;;;;;;11.04;75.36;100760.78;5047627;28;20044;-65
2022/11/15 08:28:41;;;;;;;15.43;8.52;;;;;;;11.19;75.69;100749.47;5036914;28;20448;-65
2022/11/15 08:31:07;;;;;;;16.10;8.63;;;;;;;11.56;74.08;100753.53;5046169;28;20053;-66
2022/11/15 08:33:34;;;;;;;16.83;7.93;;;;;;;11.71;72.88;100743.03;5047247;28;20123;-66
2022/11/15 08:36:02;;;;;;;13.20;8.18;;;;;;;12.77;68.80;100751.72;5039409;28;20411;-66
2022/11/15 08:38:30;;;;;;;13.75;7.95;;;;;;;13.07;67.28;100747.22;5050325;28;20036;-65
2022/11/15 08:41:02;;;;;;;13.18;8.18;;;;;;;13.52;65.92;100743.53;5058147;28;20098;-65
2022/11/15 08:43:29;;;;;;;13.43;7.90;;;;;;;14.20;63.88;100743.44;5058164;28;20037;-66
2022/11/15 08:45:56;;;;;;;12.25;7.97;;;;;;;14.43;62.21;100744.59;5050784;28;20136;-66
2022/11/15 08:48:23;;;;;;;11.23;7.53;;;;;;;15.28;60.27;100746.56;5061438;28;20082;-66
2022/11/15 08:50:49;;;;;;;11.50;7.45;;;;;;;14.99;61.10;100733.63;5069210;28;20550;-66
2022/11/15 08:53:17;;;;;;;10.73;7.22;;;;;;;15.15;60.91;100733.38;5070316;28;20097;-66
2022/11/15 08:55:44;;;;;;;12.55;7.05;;;;;;;14.72;61.99;100732.88;5068554;28;20040;-66
2022/11/15 08:58:10;;;;;;;13.90;7.50;;;;;;;14.68;63.60;100727.91;5064429;28;20052;-66
2022/11/15 09:00:37;;;;;;;9.43;6.60;;;;;;;15.77;57.98;100734.19;5070044;28;20048;-66
2022/11/15 09:03:05;;;;;;;14.63;7.75;;;;;;;15.45;60.46;100730.34;5052244;28;20044;-66
2022/11/15 09:05:31;;;;;;;10.32;6.63;;;;;;;15.36;59.75;100731.88;5058867;28;20072;-66
2022/11/15 09:07:58;;;;;;;10.88;6.93;;;;;;;15.35;60.35;100724.03;5046978;28;20075;-66
2022/11/15 09:10:25;;;;;;;13.32;7.65;;;;;;;15.36;60.10;100726.56;5050007;28;20047;-66
2022/11/15 09:12:52;;;;;;;11.82;7.10;;;;;;;14.86;60.63;100719.56;5045442;28;20060;-66
2022/11/15 09:15:19;;;;;;;12.63;7.22;;;;;;;14.93;60.76;100718.19;5049419;28;20048;-66
2022/11/15 09:17:45;;;;;;;11.15;6.68;;;;;;;16.14;58.27;100708.50;5050475;28;20062;-66
2022/11/15 09:20:12;;;;;;;10.95;6.88;;;;;;;16.14;58.53;100705.84;5039838;28;20048;-67
2022/11/15 09:22:39;;;;;;;11.52;6.93;;;;;;;16.27;56.20;100722.47;5050217;28;20044;-67
2022/11/15 09:25:07;;;;;;;10.60;6.57;;;;;;;16.72;56.23;100719.97;5051176;28;20044;-67
2022/11/15 09:27:35;;;;;;;12.68;7.55;;;;;;;16.04;58.78;100712.78;5041427;28;20396;-67
2022/11/15 09:30:01;;;;;;;10.45;7.05;;;;;;;16.19;58.37;100702.84;5049314;28;20063;-67
2022/11/15 09:32:29;;;;;;;14.55;7.35;;;;;;;15.75;57.96;100707.00;5050202;28;20040;-67
2022/11/15 09:34:56;;;;;;;9.90;6.25;;;;;;;15.63;59.09;100712.38;5048491;28;20731;-67
2022/11/15 09:37:23;;;;;;;8.88;6.07;;;;;;;15.51;58.39;100708.81;5047311;28;20051;-66
2022/11/15 09:39:49;;;;;;;11.68;6.25;;;;;;;16.33;56.99;100714.06;5056309;28;20497;-66
2022/11/15 09:42:30;;;;;;;10.32;5.97;;;;;;;17.88;52.63;100705.25;5041568;28;20044;-66
2022/11/15 09:45:12;;;;;;;12.40;6.78;;;;;;;18.61;51.52;100699.09;5050261;28;20131;-67
2022/11/15 09:48:20;;;;;;;12.45;5.55;;;;;;;19.35;48.64;100705.84;5051127;28;20458;-67
2022/11/15 09:50:49;;;;;;;10.18;6.13;;;;;;;19.18;48.72;100705.66;5025234;28;20507;-67
2022/11/15 09:53:22;;;;;;;8.55;6.13;;;;;;;18.58;48.98;100695.88;5050769;28;20511;-67
2022/11/15 09:56:00;;;;;;;9.52;5.82;;;;;;;18.79;50.19;100697.50;5053011;28;20044;-67
2022/11/15 09:58:34;;;;;;;10.82;5.95;;;;;;;19.58;49.60;100693.19;5069901;28;20111;-66
2022/11/15 10:01:05;;;;;;;8.95;5.72;;;;;;;19.98;48.07;100695.72;5058866;28;20040;-66
2022/11/15 10:03:35;;;;;;;12.77;6.22;;;;;;;19.95;47.66;100685.38;5050983;28;20052;-66
2022/11/15 10:06:04;;;;;;;11.02;6.45;;;;;;;20.68;46.50;100689.19;5050129;28;20044;-66
2022/11/15 10:08:54;;;;;;;9.68;6.15;;;;;;;20.12;48.85;100681.13;5039266;28;20064;-66
2022/11/15 10:11:24;;;;;;;9.60;6.80;;;;;;;19.79;49.11;100690.41;5055735;28;20044;-66
2022/11/15 10:13:54;;;;;;;11.85;6.90;;;;;;;18.51;51.52;100674.31;5069317;28;20066;-65
2022/11/15 10:16:51;;;;;;;9.52;6.95;;;;;;;19.06;50.52;100675.69;5068630;28;20051;-65
2022/11/15 10:19:25;;;;;;;15.48;7.65;;;;;;;18.89;51.22;100668.31;5066342;28;20040;-65
2022/11/15 10:22:01;;;;;;;9.27;6.45;;;;;;;18.66;52.26;100672.16;5064638;28;20048;-65
2022/11/15 10:24:29;;;;;;;15.32;7.72;;;;;;;18.41;53.08;100674.22;5068372;28;20528;-65
2022/11/15 10:26:56;;;;;;;10.73;6.30;;;;;;;18.65;52.18;100667.81;5060023;28;20408;-65
2022/11/15 10:29:25;;;;;;;10.40;6.80;;;;;;;18.56;52.95;100664.13;5041993;28;20488;-65
2022/11/15 10:31:54;;;;;;;10.88;6.93;;;;;;;18.61;52.08;100655.75;5035907;28;20072;-65
2022/11/15 10:34:22;;;;;;;13.90;7.63;;;;;;;18.93;52.32;100651.13;5065433;28;20051;-65
2022/11/15 10:36:56;;;;;;;10.63;6.57;;;;;;;18.86;54.13;100653.50;5044664;28;20515;-65
2022/11/15 10:39:23;;;;;;;10.77;7.10;;;;;;;19.26;51.97;100655.28;5047116;28;20052;-65
2022/11/15 10:41:49;;;;;;;14.25;7.65;;;;;;;19.30;52.58;100654.88;5041781;28;20490;-65
2022/11/15 10:44:24;;;;;;;14.70;7.68;;;;;;;18.88;52.62;100642.75;5049046;28;20045;-65
2022/11/15 10:47:20;;;;;;;13.60;6.85;;;;;;;18.81;52.97;100645.06;5048323;28;20055;-65
2022/11/15 10:49:55;;;;;;;18.65;7.03;;;;;;;19.25;51.64;100638.50;5037407;28;20064;-65
2022/11/15 10:52:24;;;;;;;10.50;6.65;;;;;;;19.63;52.13;100626.25;5019126;28;20076;-65
2022/11/15 10:54:54;;;;;;;10.13;6.13;;;;;;;19.49;51.46;100622.19;5047178;28;20045;-66
2022/11/15 10:57:24;;;;;;;9.32;6.28;;;;;;;19.28;54.20;100624.94;5052732;28;20055;-65
2022/11/15 10:59:56;;;;;;;8.55;5.78;;;;;;;19.01;52.61;100611.44;5040448;28;20503;-65
2022/11/15 11:02:32;;;;;;;8.90;5.60;;;;;;;18.85;51.76;100611.13;5048557;28;20523;-66
2022/11/15 11:05:00;;;;;;;8.75;5.05;;;;;;;18.61;51.54;100614.13;5039092;28;20407;-65
2022/11/15 11:07:28;;;;;;;8.43;5.15;;;;;;;16.78;55.94;100603.81;5049230;28;20043;-65
2022/11/15 11:09:59;;;;;;;7.65;5.00;;;;;;;15.74;59.87;100614.59;5047358;28;20063;-66
2022/11/15 11:12:31;;;;;;;12.70;5.45;;;;;;;16.00;61.21;100613.50;5039884;28;20040;-66
2022/11/15 11:14:58;;;;;;;9.45;5.55;;;;;;;16.32;60.69;100611.00;5047970;28;20389;-66
2022/11/15 11:17:37;;;;;;;7.88;5.22;;;;;;;17.00;57.43;100613.53;5048881;28;20040;-66
2022/11/15 11:20:11;;;;;;;7.85;4.80;;;;;;;17.47;56.62;100610.53;5048528;28;20454;-65
2022/11/15 11:22:47;;;;;;;6.80;4.82;;;;;;;17.05;56.66;100606.06;5048836;28;20450;-66
2022/11/15 11:25:26;;;;;;;7.40;5.22;;;;;;;17.17;57.04;100606.88;5048428;28;20060;-65
2022/11/15 11:28:19;;;;;;;9.70;5.20;;;;;;;17.10;56.63;100611.00;5047583;28;20052;-65
2022/11/15 11:30:59;;;;;;;10.93;4.68;;;;;;;16.72;59.36;100614.91;5047102;28;20052;-65
2022/11/15 11:33:32;;;;;;;7.60;4.47;;;;;;;17.10;59.65;100617.13;5039564;28;20045;-65
2022/11/15 11:36:10;;;;;;;7.32;4.93;;;;;;;17.02;58.20;100615.09;5056905;28;20055;-65
2022/11/15 11:38:50;;;;;;;7.38;4.82;;;;;;;17.30;58.15;100610.19;5047171;28;20047;-66